sensor_id;sensor_type;location;lat;lon;timestamp;P1;durP1;ratioP1;P2;durP2;ratioP2
64633;SDS011;51043;52.406;9.690;2023-02-28T00:01:21;12.27;;;6.70;;
64633;SDS011;51043;52.406;9.690;2023-02-28T00:03:49;10.17;;;6.87;;
64633;SDS011;51043;52.406;9.690;2023-02-28T00:06:15;10.50;;;6.73;;
64633;SDS011;51043;52.406;9.690;2023-02-28T00:08:43;11.17;;;6.90;;
64633;SDS011;51043;52.406;9.690;2023-02-28T00:11:11;11.50;;;6.87;;
64633;SDS011;51043;52.406;9.690;2023-02-28T00:13:40;11.57;;;6.67;;
64633;SDS011;51043;52.406;9.690;2023-02-28T00:16:11;9.70;;;6.43;;
64633;SDS011;51043;52.406;9.690;2023-02-28T00:18:40;9.57;;;6.60;;
64633;SDS011;51043;52.406;9.690;2023-02-28T00:21:07;10.53;;;7.13;;
64633;SDS011;51043;52.406;9.690;2023-02-28T00:23:35;11.70;;;6.87;;
64633;SDS011;51043;52.406;9.690;2023-02-28T00:26:02;10.60;;;7.13;;
64633;SDS011;51043;52.406;9.690;2023-02-28T00:28:29;13.03;;;6.70;;
64633;SDS011;51043;52.406;9.690;2023-02-28T00:30:58;11.77;;;7.47;;
64633;SDS011;51043;52.406;9.690;2023-02-28T00:33:26;14.33;;;6.77;;
64633;SDS011;51043;52.406;9.690;2023-02-28T00:36:00;15.17;;;7.57;;
64633;SDS011;51043;52.406;9.690;2023-02-28T00:38:34;10.00;;;7.10;;
64633;SDS011;51043;52.406;9.690;2023-02-28T00:41:01;11.20;;;7.00;;
64633;SDS011;51043;52.406;9.690;2023-02-28T00:43:32;11.60;;;7.40;;
64633;SDS011;51043;52.406;9.690;2023-02-28T00:46:00;10.53;;;7.30;;
64633;SDS011;51043;52.406;9.690;2023-02-28T00:48:29;11.80;;;7.47;;
64633;SDS011;51043;52.406;9.690;2023-02-28T00:50:56;11.20;;;7.50;;
64633;SDS011;51043;52.406;9.690;2023-02-28T00:53:23;13.50;;;7.63;;
64633;SDS011;51043;52.406;9.690;2023-02-28T00:55:50;10.07;;;7.03;;
64633;SDS011;51043;52.406;9.690;2023-02-28T00:58:17;10.47;;;7.03;;
64633;SDS011;51043;52.406;9.690;2023-02-28T01:00:47;11.17;;;7.47;;
64633;SDS011;51043;52.406;9.690;2023-02-28T01:03:16;11.93;;;7.53;;
64633;SDS011;51043;52.406;9.690;2023-02-28T01:05:44;11.77;;;7.23;;
64633;SDS011;51043;52.406;9.690;2023-02-28T01:08:12;11.30;;;7.10;;
64633;SDS011;51043;52.406;9.690;2023-02-28T01:10:39;12.53;;;7.60;;
64633;SDS011;51043;52.406;9.690;2023-02-28T01:13:06;17.33;;;7.40;;
64633;SDS011;51043;52.406;9.690;2023-02-28T01:15:36;21.00;;;8.07;;
64633;SDS011;51043;52.406;9.690;2023-02-28T01:18:03;13.40;;;7.20;;
64633;SDS011;51043;52.406;9.690;2023-02-28T01:20:30;16.90;;;7.43;;
64633;SDS011;51043;52.406;9.690;2023-02-28T01:22:57;18.03;;;7.63;;
64633;SDS011;51043;52.406;9.690;2023-02-28T01:25:24;22.70;;;7.17;;
64633;SDS011;51043;52.406;9.690;2023-02-28T01:27:51;15.87;;;7.70;;
64633;SDS011;51043;52.406;9.690;2023-02-28T01:30:18;19.47;;;7.87;;
64633;SDS011;51043;52.406;9.690;2023-02-28T01:32:46;21.17;;;7.97;;
64633;SDS011;51043;52.406;9.690;2023-02-28T01:35:12;18.27;;;8.20;;
64633;SDS011;51043;52.406;9.690;2023-02-28T01:37:39;15.17;;;7.80;;
64633;SDS011;51043;52.406;9.690;2023-02-28T01:40:06;11.27;;;7.50;;
64633;SDS011;51043;52.406;9.690;2023-02-28T01:42:38;13.47;;;7.30;;
64633;SDS011;51043;52.406;9.690;2023-02-28T01:45:19;14.93;;;7.73;;
64633;SDS011;51043;52.406;9.690;2023-02-28T01:47:52;19.20;;;8.00;;
64633;SDS011;51043;52.406;9.690;2023-02-28T01:50:25;14.10;;;8.17;;
64633;SDS011;51043;52.406;9.690;2023-02-28T01:52:56;19.37;;;8.87;;
64633;SDS011;51043;52.406;9.690;2023-02-28T01:55:25;16.50;;;8.13;;
64633;SDS011;51043;52.406;9.690;2023-02-28T01:57:57;19.60;;;7.73;;
64633;SDS011;51043;52.406;9.690;2023-02-28T02:00:26;17.80;;;8.03;;
64633;SDS011;51043;52.406;9.690;2023-02-28T02:02:59;12.07;;;7.73;;
64633;SDS011;51043;52.406;9.690;2023-02-28T02:05:31;19.30;;;9.23;;
64633;SDS011;51043;52.406;9.690;2023-02-28T02:08:01;16.53;;;8.30;;
64633;SDS011;51043;52.406;9.690;2023-02-28T02:10:32;17.43;;;8.20;;
64633;SDS011;51043;52.406;9.690;2023-02-28T02:15:59;17.73;;;8.80;;
64633;SDS011;51043;52.406;9.690;2023-02-28T02:18:56;19.23;;;9.30;;
64633;SDS011;51043;52.406;9.690;2023-02-28T02:24:23;14.50;;;9.27;;
64633;SDS011;51043;52.406;9.690;2023-02-28T02:27:10;17.70;;;9.60;;
64633;SDS011;51043;52.406;9.690;2023-02-28T02:30:06;19.73;;;9.97;;
64633;SDS011;51043;52.406;9.690;2023-02-28T02:35:39;17.40;;;9.97;;
64633;SDS011;51043;52.406;9.690;2023-02-28T02:41:05;15.33;;;10.10;;
64633;SDS011;51043;52.406;9.690;2023-02-28T02:44:06;17.47;;;9.67;;
64633;SDS011;51043;52.406;9.690;2023-02-28T02:47:16;15.20;;;9.80;;
64633;SDS011;51043;52.406;9.690;2023-02-28T02:49:50;13.47;;;9.13;;
64633;SDS011;51043;52.406;9.690;2023-02-28T02:52:22;17.93;;;9.87;;
64633;SDS011;51043;52.406;9.690;2023-02-28T02:54:55;26.80;;;9.17;;
64633;SDS011;51043;52.406;9.690;2023-02-28T02:57:25;15.93;;;8.80;;
64633;SDS011;51043;52.406;9.690;2023-02-28T02:59:56;17.40;;;9.40;;
64633;SDS011;51043;52.406;9.690;2023-02-28T03:02:25;14.77;;;9.00;;
64633;SDS011;51043;52.406;9.690;2023-02-28T03:04:56;19.97;;;9.13;;
64633;SDS011;51043;52.406;9.690;2023-02-28T03:07:27;13.93;;;8.73;;
64633;SDS011;51043;52.406;9.690;2023-02-28T03:09:54;16.00;;;8.73;;
64633;SDS011;51043;52.406;9.690;2023-02-28T03:12:23;14.80;;;8.60;;
64633;SDS011;51043;52.406;9.690;2023-02-28T03:28:01;17.13;;;9.07;;
64633;SDS011;51043;52.406;9.690;2023-02-28T03:30:41;18.10;;;8.17;;
64633;SDS011;51043;52.406;9.690;2023-02-28T03:33:29;15.57;;;8.33;;
64633;SDS011;51043;52.406;9.690;2023-02-28T03:36:12;13.50;;;7.47;;
64633;SDS011;51043;52.406;9.690;2023-02-28T03:38:44;13.97;;;7.67;;
64633;SDS011;51043;52.406;9.690;2023-02-28T03:41:29;20.00;;;8.57;;
64633;SDS011;51043;52.406;9.690;2023-02-28T03:44:06;14.57;;;8.00;;
64633;SDS011;51043;52.406;9.690;2023-02-28T03:49:31;17.60;;;7.83;;
64633;SDS011;51043;52.406;9.690;2023-02-28T03:52:05;15.63;;;8.37;;
64633;SDS011;51043;52.406;9.690;2023-02-28T03:54:43;12.83;;;7.70;;
64633;SDS011;51043;52.406;9.690;2023-02-28T04:00:04;13.70;;;7.77;;
64633;SDS011;51043;52.406;9.690;2023-02-28T04:02:37;13.87;;;7.80;;
64633;SDS011;51043;52.406;9.690;2023-02-28T04:05:06;13.17;;;7.73;;
64633;SDS011;51043;52.406;9.690;2023-02-28T04:07:33;16.00;;;7.87;;
64633;SDS011;51043;52.406;9.690;2023-02-28T04:10:01;11.00;;;7.83;;
64633;SDS011;51043;52.406;9.690;2023-02-28T04:12:27;13.47;;;7.23;;
64633;SDS011;51043;52.406;9.690;2023-02-28T04:14:54;11.80;;;8.07;;
64633;SDS011;51043;52.406;9.690;2023-02-28T04:17:21;18.33;;;8.60;;
64633;SDS011;51043;52.406;9.690;2023-02-28T04:19:48;12.83;;;7.80;;
64633;SDS011;51043;52.406;9.690;2023-02-28T04:22:16;11.27;;;8.13;;
64633;SDS011;51043;52.406;9.690;2023-02-28T04:24:44;13.17;;;8.10;;
64633;SDS011;51043;52.406;9.690;2023-02-28T04:27:11;12.00;;;8.80;;
64633;SDS011;51043;52.406;9.690;2023-02-28T04:29:38;14.60;;;7.87;;
64633;SDS011;51043;52.406;9.690;2023-02-28T04:32:05;18.50;;;8.47;;
64633;SDS011;51043;52.406;9.690;2023-02-28T04:34:32;17.47;;;8.30;;
64633;SDS011;51043;52.406;9.690;2023-02-28T04:36:59;22.13;;;8.00;;
64633;SDS011;51043;52.406;9.690;2023-02-28T04:39:42;12.33;;;8.23;;
64633;SDS011;51043;52.406;9.690;2023-02-28T04:42:10;14.83;;;8.43;;
64633;SDS011;51043;52.406;9.690;2023-02-28T04:44:37;16.13;;;8.57;;
64633;SDS011;51043;52.406;9.690;2023-02-28T04:47:04;12.97;;;8.47;;
64633;SDS011;51043;52.406;9.690;2023-02-28T04:49:31;10.77;;;7.73;;
64633;SDS011;51043;52.406;9.690;2023-02-28T04:51:58;15.70;;;7.73;;
64633;SDS011;51043;52.406;9.690;2023-02-28T04:54:25;21.43;;;8.60;;
64633;SDS011;51043;52.406;9.690;2023-02-28T04:56:52;12.97;;;8.30;;
64633;SDS011;51043;52.406;9.690;2023-02-28T04:59:20;12.47;;;8.40;;
64633;SDS011;51043;52.406;9.690;2023-02-28T05:01:48;11.97;;;8.10;;
64633;SDS011;51043;52.406;9.690;2023-02-28T05:04:16;12.77;;;8.90;;
64633;SDS011;51043;52.406;9.690;2023-02-28T05:06:43;12.43;;;8.70;;
64633;SDS011;51043;52.406;9.690;2023-02-28T05:09:10;14.93;;;8.27;;
64633;SDS011;51043;52.406;9.690;2023-02-28T05:11:41;10.87;;;8.27;;
64633;SDS011;51043;52.406;9.690;2023-02-28T05:14:13;12.30;;;8.73;;
64633;SDS011;51043;52.406;9.690;2023-02-28T05:16:41;15.93;;;9.00;;
64633;SDS011;51043;52.406;9.690;2023-02-28T05:19:08;11.40;;;8.63;;
64633;SDS011;51043;52.406;9.690;2023-02-28T05:21:36;14.83;;;8.67;;
64633;SDS011;51043;52.406;9.690;2023-02-28T05:24:07;11.83;;;8.80;;
64633;SDS011;51043;52.406;9.690;2023-02-28T05:26:39;15.63;;;9.13;;
64633;SDS011;51043;52.406;9.690;2023-02-28T05:29:08;17.83;;;9.53;;
64633;SDS011;51043;52.406;9.690;2023-02-28T05:31:36;11.63;;;8.73;;
64633;SDS011;51043;52.406;9.690;2023-02-28T05:34:03;14.90;;;9.43;;
64633;SDS011;51043;52.406;9.690;2023-02-28T05:36:30;15.83;;;9.27;;
64633;SDS011;51043;52.406;9.690;2023-02-28T05:38:57;24.47;;;9.53;;
64633;SDS011;51043;52.406;9.690;2023-02-28T05:41:24;23.73;;;9.50;;
64633;SDS011;51043;52.406;9.690;2023-02-28T05:43:52;15.20;;;9.10;;
64633;SDS011;51043;52.406;9.690;2023-02-28T05:46:19;14.97;;;9.57;;
64633;SDS011;51043;52.406;9.690;2023-02-28T05:48:49;15.43;;;10.20;;
64633;SDS011;51043;52.406;9.690;2023-02-28T05:51:16;17.00;;;9.53;;
64633;SDS011;51043;52.406;9.690;2023-02-28T05:53:44;16.33;;;10.33;;
64633;SDS011;51043;52.406;9.690;2023-02-28T05:56:10;18.17;;;10.70;;
64633;SDS011;51043;52.406;9.690;2023-02-28T05:58:38;21.77;;;10.23;;
64633;SDS011;51043;52.406;9.690;2023-02-28T06:01:26;19.50;;;10.77;;
64633;SDS011;51043;52.406;9.690;2023-02-28T06:04:00;18.87;;;10.70;;
64633;SDS011;51043;52.406;9.690;2023-02-28T06:06:28;18.97;;;10.17;;
64633;SDS011;51043;52.406;9.690;2023-02-28T06:08:56;19.03;;;10.70;;
64633;SDS011;51043;52.406;9.690;2023-02-28T06:11:23;16.90;;;9.80;;
64633;SDS011;51043;52.406;9.690;2023-02-28T06:13:54;33.97;;;16.77;;
64633;SDS011;51043;52.406;9.690;2023-02-28T06:16:23;14.63;;;9.50;;
64633;SDS011;51043;52.406;9.690;2023-02-28T06:18:50;14.37;;;9.90;;
64633;SDS011;51043;52.406;9.690;2023-02-28T06:21:19;13.70;;;9.90;;
64633;SDS011;51043;52.406;9.690;2023-02-28T06:23:46;17.77;;;9.80;;
64633;SDS011;51043;52.406;9.690;2023-02-28T06:26:13;14.70;;;9.90;;
64633;SDS011;51043;52.406;9.690;2023-02-28T06:28:40;13.80;;;9.67;;
64633;SDS011;51043;52.406;9.690;2023-02-28T06:31:08;16.50;;;9.90;;
64633;SDS011;51043;52.406;9.690;2023-02-28T06:33:37;14.00;;;9.77;;
64633;SDS011;51043;52.406;9.690;2023-02-28T06:36:05;14.93;;;10.30;;
64633;SDS011;51043;52.406;9.690;2023-02-28T06:38:33;15.90;;;9.73;;
64633;SDS011;51043;52.406;9.690;2023-02-28T06:41:00;15.17;;;9.80;;
64633;SDS011;51043;52.406;9.690;2023-02-28T06:43:28;16.63;;;9.83;;
64633;SDS011;51043;52.406;9.690;2023-02-28T06:45:57;15.60;;;9.87;;
64633;SDS011;51043;52.406;9.690;2023-02-28T06:48:26;19.10;;;10.40;;
64633;SDS011;51043;52.406;9.690;2023-02-28T06:51:03;14.63;;;10.50;;
64633;SDS011;51043;52.406;9.690;2023-02-28T06:53:34;18.60;;;10.07;;
64633;SDS011;51043;52.406;9.690;2023-02-28T06:56:05;18.37;;;10.33;;
64633;SDS011;51043;52.406;9.690;2023-02-28T06:58:34;16.47;;;10.10;;
64633;SDS011;51043;52.406;9.690;2023-02-28T07:01:01;17.70;;;10.03;;
64633;SDS011;51043;52.406;9.690;2023-02-28T07:03:29;15.77;;;10.70;;
64633;SDS011;51043;52.406;9.690;2023-02-28T07:06:00;13.40;;;8.70;;
64633;SDS011;51043;52.406;9.690;2023-02-28T07:08:27;18.93;;;8.03;;
64633;SDS011;51043;52.406;9.690;2023-02-28T07:10:54;12.93;;;7.17;;
64633;SDS011;51043;52.406;9.690;2023-02-28T07:13:22;12.33;;;7.80;;
64633;SDS011;51043;52.406;9.690;2023-02-28T07:15:59;12.37;;;7.50;;
64633;SDS011;51043;52.406;9.690;2023-02-28T07:18:28;14.13;;;7.87;;
64633;SDS011;51043;52.406;9.690;2023-02-28T07:20:55;13.70;;;7.93;;
64633;SDS011;51043;52.406;9.690;2023-02-28T07:23:22;15.73;;;7.67;;
64633;SDS011;51043;52.406;9.690;2023-02-28T07:25:58;14.27;;;8.43;;
64633;SDS011;51043;52.406;9.690;2023-02-28T07:28:28;20.33;;;8.30;;
64633;SDS011;51043;52.406;9.690;2023-02-28T07:30:55;11.90;;;7.77;;
64633;SDS011;51043;52.406;9.690;2023-02-28T07:33:26;12.23;;;8.47;;
64633;SDS011;51043;52.406;9.690;2023-02-28T07:35:59;14.77;;;8.03;;
64633;SDS011;51043;52.406;9.690;2023-02-28T07:38:27;16.23;;;9.03;;
64633;SDS011;51043;52.406;9.690;2023-02-28T07:40:54;15.10;;;7.87;;
64633;SDS011;51043;52.406;9.690;2023-02-28T07:43:24;15.53;;;8.17;;
64633;SDS011;51043;52.406;9.690;2023-02-28T07:45:51;18.53;;;7.77;;
64633;SDS011;51043;52.406;9.690;2023-02-28T07:48:18;12.27;;;7.40;;
64633;SDS011;51043;52.406;9.690;2023-02-28T07:50:44;12.20;;;7.33;;
64633;SDS011;51043;52.406;9.690;2023-02-28T07:53:21;16.97;;;7.07;;
64633;SDS011;51043;52.406;9.690;2023-02-28T07:55:54;10.53;;;5.33;;
64633;SDS011;51043;52.406;9.690;2023-02-28T07:58:22;9.07;;;5.40;;
64633;SDS011;51043;52.406;9.690;2023-02-28T08:00:52;12.30;;;5.87;;
64633;SDS011;51043;52.406;9.690;2023-02-28T08:03:19;9.57;;;5.10;;
64633;SDS011;51043;52.406;9.690;2023-02-28T08:05:48;10.97;;;5.03;;
64633;SDS011;51043;52.406;9.690;2023-02-28T08:08:15;13.87;;;4.87;;
64633;SDS011;51043;52.406;9.690;2023-02-28T08:10:43;7.20;;;4.83;;
64633;SDS011;51043;52.406;9.690;2023-02-28T08:13:10;7.93;;;4.95;;
64633;SDS011;51043;52.406;9.690;2023-02-28T08:15:36;7.28;;;4.03;;
64633;SDS011;51043;52.406;9.690;2023-02-28T08:18:03;7.43;;;4.45;;
64633;SDS011;51043;52.406;9.690;2023-02-28T08:20:30;7.38;;;4.43;;
64633;SDS011;51043;52.406;9.690;2023-02-28T08:22:57;8.13;;;4.35;;
64633;SDS011;51043;52.406;9.690;2023-02-28T08:25:24;6.90;;;4.30;;
64633;SDS011;51043;52.406;9.690;2023-02-28T08:27:53;8.98;;;4.38;;
64633;SDS011;51043;52.406;9.690;2023-02-28T08:30:28;12.98;;;4.85;;
64633;SDS011;51043;52.406;9.690;2023-02-28T08:32:55;11.80;;;4.57;;
64633;SDS011;51043;52.406;9.690;2023-02-28T08:35:22;8.55;;;4.70;;
64633;SDS011;51043;52.406;9.690;2023-02-28T08:37:54;12.40;;;4.78;;
64633;SDS011;51043;52.406;9.690;2023-02-28T08:40:21;9.00;;;3.97;;
64633;SDS011;51043;52.406;9.690;2023-02-28T08:42:50;11.27;;;4.00;;
64633;SDS011;51043;52.406;9.690;2023-02-28T08:45:17;8.95;;;4.22;;
64633;SDS011;51043;52.406;9.690;2023-02-28T08:47:44;8.75;;;4.18;;
64633;SDS011;51043;52.406;9.690;2023-02-28T08:50:12;6.32;;;3.53;;
64633;SDS011;51043;52.406;9.690;2023-02-28T08:52:44;6.07;;;3.72;;
64633;SDS011;51043;52.406;9.690;2023-02-28T08:55:10;8.10;;;4.30;;
64633;SDS011;51043;52.406;9.690;2023-02-28T08:57:37;6.40;;;4.18;;
64633;SDS011;51043;52.406;9.690;2023-02-28T09:00:05;11.37;;;4.00;;
64633;SDS011;51043;52.406;9.690;2023-02-28T09:02:32;5.73;;;3.17;;
64633;SDS011;51043;52.406;9.690;2023-02-28T09:04:59;6.97;;;3.47;;
64633;SDS011;51043;52.406;9.690;2023-02-28T09:07:29;6.27;;;3.70;;
64633;SDS011;51043;52.406;9.690;2023-02-28T09:09:56;5.10;;;3.47;;
64633;SDS011;51043;52.406;9.690;2023-02-28T09:12:24;5.33;;;3.03;;
64633;SDS011;51043;52.406;9.690;2023-02-28T09:14:52;7.27;;;3.30;;
64633;SDS011;51043;52.406;9.690;2023-02-28T09:17:20;6.00;;;3.00;;
64633;SDS011;51043;52.406;9.690;2023-02-28T09:19:47;4.57;;;3.17;;
64633;SDS011;51043;52.406;9.690;2023-02-28T09:22:15;7.63;;;3.13;;
64633;SDS011;51043;52.406;9.690;2023-02-28T09:24:42;6.33;;;3.37;;
64633;SDS011;51043;52.406;9.690;2023-02-28T09:27:10;5.23;;;3.03;;
64633;SDS011;51043;52.406;9.690;2023-02-28T09:29:37;6.60;;;3.17;;
64633;SDS011;51043;52.406;9.690;2023-02-28T09:32:04;3.77;;;3.07;;
64633;SDS011;51043;52.406;9.690;2023-02-28T09:34:32;4.97;;;3.20;;
64633;SDS011;51043;52.406;9.690;2023-02-28T09:36:59;7.67;;;3.20;;
64633;SDS011;51043;52.406;9.690;2023-02-28T09:39:26;6.67;;;3.10;;
64633;SDS011;51043;52.406;9.690;2023-02-28T09:41:56;5.00;;;2.80;;
64633;SDS011;51043;52.406;9.690;2023-02-28T09:44:31;3.63;;;2.50;;
64633;SDS011;51043;52.406;9.690;2023-02-28T09:47:07;6.10;;;2.60;;
64633;SDS011;51043;52.406;9.690;2023-02-28T09:49:56;3.20;;;2.20;;
64633;SDS011;51043;52.406;9.690;2023-02-28T09:52:31;3.30;;;1.97;;
64633;SDS011;51043;52.406;9.690;2023-02-28T09:55:19;3.63;;;2.20;;
64633;SDS011;51043;52.406;9.690;2023-02-28T09:57:52;3.43;;;2.10;;
64633;SDS011;51043;52.406;9.690;2023-02-28T10:00:24;4.30;;;2.30;;
64633;SDS011;51043;52.406;9.690;2023-02-28T10:03:08;3.50;;;2.27;;
64633;SDS011;51043;52.406;9.690;2023-02-28T10:11:12;2.93;;;2.10;;
64633;SDS011;51043;52.406;9.690;2023-02-28T10:13:53;2.40;;;2.00;;
64633;SDS011;51043;52.406;9.690;2023-02-28T10:16:35;8.37;;;2.13;;
64633;SDS011;51043;52.406;9.690;2023-02-28T10:21:47;4.13;;;2.20;;
64633;SDS011;51043;52.406;9.690;2023-02-28T10:24:43;2.70;;;2.10;;
64633;SDS011;51043;52.406;9.690;2023-02-28T10:27:16;7.70;;;2.37;;
64633;SDS011;51043;52.406;9.690;2023-02-28T10:29:49;3.70;;;1.97;;
64633;SDS011;51043;52.406;9.690;2023-02-28T10:32:18;3.60;;;2.20;;
64633;SDS011;51043;52.406;9.690;2023-02-28T10:37:46;3.10;;;1.77;;
64633;SDS011;51043;52.406;9.690;2023-02-28T10:43:01;4.43;;;2.00;;
64633;SDS011;51043;52.406;9.690;2023-02-28T10:45:53;2.90;;;1.83;;
64633;SDS011;51043;52.406;9.690;2023-02-28T10:48:37;2.87;;;1.70;;
64633;SDS011;51043;52.406;9.690;2023-02-28T10:51:07;3.07;;;1.90;;
64633;SDS011;51043;52.406;9.690;2023-02-28T10:53:47;1.93;;;1.37;;
64633;SDS011;51043;52.406;9.690;2023-02-28T10:56:26;2.60;;;1.80;;
64633;SDS011;51043;52.406;9.690;2023-02-28T10:58:58;2.67;;;1.60;;
64633;SDS011;51043;52.406;9.690;2023-02-28T11:07:19;2.50;;;1.73;;
64633;SDS011;51043;52.406;9.690;2023-02-28T11:09:52;1.77;;;1.50;;
64633;SDS011;51043;52.406;9.690;2023-02-28T11:12:42;6.70;;;1.95;;
64633;SDS011;51043;52.406;9.690;2023-02-28T11:18:02;2.92;;;1.40;;
64633;SDS011;51043;52.406;9.690;2023-02-28T11:20:39;3.03;;;2.00;;
64633;SDS011;51043;52.406;9.690;2023-02-28T11:23:09;5.45;;;1.83;;
64633;SDS011;51043;52.406;9.690;2023-02-28T11:25:40;2.60;;;1.48;;
64633;SDS011;51043;52.406;9.690;2023-02-28T11:28:28;2.65;;;1.60;;
64633;SDS011;51043;52.406;9.690;2023-02-28T11:33:52;9.45;;;1.77;;
64633;SDS011;51043;52.406;9.690;2023-02-28T11:36:21;2.22;;;1.50;;
64633;SDS011;51043;52.406;9.690;2023-02-28T11:38:54;5.22;;;1.60;;
64633;SDS011;51043;52.406;9.690;2023-02-28T11:41:32;2.42;;;1.60;;
64633;SDS011;51043;52.406;9.690;2023-02-28T11:44:40;3.72;;;1.75;;
64633;SDS011;51043;52.406;9.690;2023-02-28T11:47:27;7.55;;;1.63;;
64633;SDS011;51043;52.406;9.690;2023-02-28T11:52:48;1.55;;;1.45;;
64633;SDS011;51043;52.406;9.690;2023-02-28T11:55:35;3.92;;;1.90;;
64633;SDS011;51043;52.406;9.690;2023-02-28T11:58:14;6.57;;;1.90;;
64633;SDS011;51043;52.406;9.690;2023-02-28T12:11:57;5.03;;;1.80;;
64633;SDS011;51043;52.406;9.690;2023-02-28T12:17:22;4.70;;;1.67;;
64633;SDS011;51043;52.406;9.690;2023-02-28T12:22:55;5.47;;;1.97;;
64633;SDS011;51043;52.406;9.690;2023-02-28T12:28:24;4.77;;;2.03;;
64633;SDS011;51043;52.406;9.690;2023-02-28T12:30:57;2.83;;;1.90;;
64633;SDS011;51043;52.406;9.690;2023-02-28T12:33:34;6.53;;;2.00;;
64633;SDS011;51043;52.406;9.690;2023-02-28T12:36:10;3.63;;;1.80;;
64633;SDS011;51043;52.406;9.690;2023-02-28T12:38:45;2.43;;;1.70;;
64633;SDS011;51043;52.406;9.690;2023-02-28T12:41:33;2.60;;;1.97;;
64633;SDS011;51043;52.406;9.690;2023-02-28T12:44:21;3.23;;;1.70;;
64633;SDS011;51043;52.406;9.690;2023-02-28T12:47:02;3.07;;;2.00;;
64633;SDS011;51043;52.406;9.690;2023-02-28T12:49:42;2.30;;;1.80;;
64633;SDS011;51043;52.406;9.690;2023-02-28T12:52:17;3.37;;;2.00;;
64633;SDS011;51043;52.406;9.690;2023-02-28T12:54:52;3.67;;;2.07;;
64633;SDS011;51043;52.406;9.690;2023-02-28T13:00:17;5.33;;;2.20;;
64633;SDS011;51043;52.406;9.690;2023-02-28T13:08:26;6.73;;;2.30;;
64633;SDS011;51043;52.406;9.690;2023-02-28T13:14:59;4.37;;;2.23;;
64633;SDS011;51043;52.406;9.690;2023-02-28T13:29:43;3.23;;;2.50;;
64633;SDS011;51043;52.406;9.690;2023-02-28T13:34:38;7.30;;;3.13;;
64633;SDS011;51043;52.406;9.690;2023-02-28T13:39:48;5.10;;;2.90;;
64633;SDS011;51043;52.406;9.690;2023-02-28T13:42:32;4.53;;;2.70;;
64633;SDS011;51043;52.406;9.690;2023-02-28T13:47:51;3.67;;;2.43;;
64633;SDS011;51043;52.406;9.690;2023-02-28T13:55:43;5.60;;;2.60;;
64633;SDS011;51043;52.406;9.690;2023-02-28T14:01:22;5.63;;;2.70;;
64633;SDS011;51043;52.406;9.690;2023-02-28T14:04:12;8.80;;;4.37;;
64633;SDS011;51043;52.406;9.690;2023-02-28T14:07:00;3.87;;;2.50;;
64633;SDS011;51043;52.406;9.690;2023-02-28T14:09:28;4.77;;;2.67;;
64633;SDS011;51043;52.406;9.690;2023-02-28T14:15:23;3.47;;;2.80;;
64633;SDS011;51043;52.406;9.690;2023-02-28T14:17:58;5.80;;;2.70;;
64633;SDS011;51043;52.406;9.690;2023-02-28T14:20:27;3.10;;;2.40;;
64633;SDS011;51043;52.406;9.690;2023-02-28T14:26:05;4.83;;;2.83;;
64633;SDS011;51043;52.406;9.690;2023-02-28T14:36:39;5.20;;;2.60;;
64633;SDS011;51043;52.406;9.690;2023-02-28T14:39:12;3.63;;;2.70;;
64633;SDS011;51043;52.406;9.690;2023-02-28T14:41:42;4.37;;;2.40;;
64633;SDS011;51043;52.406;9.690;2023-02-28T14:44:24;3.20;;;2.37;;
64633;SDS011;51043;52.406;9.690;2023-02-28T14:46:56;5.93;;;2.87;;
64633;SDS011;51043;52.406;9.690;2023-02-28T14:52:09;5.53;;;2.30;;
64633;SDS011;51043;52.406;9.690;2023-02-28T14:54:45;3.90;;;2.23;;
64633;SDS011;51043;52.406;9.690;2023-02-28T14:57:24;4.37;;;2.60;;
64633;SDS011;51043;52.406;9.690;2023-02-28T15:02:49;4.63;;;2.60;;
64633;SDS011;51043;52.406;9.690;2023-02-28T15:10:36;6.53;;;3.10;;
64633;SDS011;51043;52.406;9.690;2023-02-28T15:13:08;10.33;;;2.90;;
64633;SDS011;51043;52.406;9.690;2023-02-28T15:15:55;4.93;;;2.60;;
64633;SDS011;51043;52.406;9.690;2023-02-28T15:23:57;3.37;;;2.40;;
64633;SDS011;51043;52.406;9.690;2023-02-28T15:26:34;6.33;;;2.67;;
64633;SDS011;51043;52.406;9.690;2023-02-28T15:29:06;7.47;;;2.60;;
64633;SDS011;51043;52.406;9.690;2023-02-28T15:31:45;5.50;;;2.30;;
64633;SDS011;51043;52.406;9.690;2023-02-28T15:40:16;6.63;;;2.70;;
64633;SDS011;51043;52.406;9.690;2023-02-28T15:45:33;4.93;;;2.80;;
64633;SDS011;51043;52.406;9.690;2023-02-28T15:48:15;6.47;;;2.30;;
64633;SDS011;51043;52.406;9.690;2023-02-28T15:50:47;4.90;;;2.60;;
64633;SDS011;51043;52.406;9.690;2023-02-28T15:53:19;7.13;;;3.30;;
64633;SDS011;51043;52.406;9.690;2023-02-28T15:55:54;4.57;;;2.80;;
64633;SDS011;51043;52.406;9.690;2023-02-28T15:58:26;7.97;;;3.00;;
64633;SDS011;51043;52.406;9.690;2023-02-28T16:01:00;5.03;;;2.80;;
64633;SDS011;51043;52.406;9.690;2023-02-28T16:03:52;4.90;;;3.13;;
64633;SDS011;51043;52.406;9.690;2023-02-28T16:06:34;7.90;;;2.93;;
64633;SDS011;51043;52.406;9.690;2023-02-28T16:09:09;3.57;;;2.53;;
64633;SDS011;51043;52.406;9.690;2023-02-28T16:11:50;6.00;;;2.93;;
64633;SDS011;51043;52.406;9.690;2023-02-28T16:14:20;4.73;;;2.60;;
64633;SDS011;51043;52.406;9.690;2023-02-28T16:16:54;3.83;;;2.70;;
64633;SDS011;51043;52.406;9.690;2023-02-28T16:19:23;3.57;;;2.83;;
64633;SDS011;51043;52.406;9.690;2023-02-28T16:21:50;4.30;;;3.07;;
64633;SDS011;51043;52.406;9.690;2023-02-28T16:24:17;8.10;;;3.23;;
64633;SDS011;51043;52.406;9.690;2023-02-28T16:26:48;11.07;;;6.93;;
64633;SDS011;51043;52.406;9.690;2023-02-28T16:29:23;12.57;;;6.53;;
64633;SDS011;51043;52.406;9.690;2023-02-28T16:31:56;6.17;;;4.17;;
64633;SDS011;51043;52.406;9.690;2023-02-28T16:34:23;3.97;;;2.80;;
64633;SDS011;51043;52.406;9.690;2023-02-28T16:36:50;4.87;;;3.27;;
64633;SDS011;51043;52.406;9.690;2023-02-28T16:39:17;5.97;;;3.53;;
64633;SDS011;51043;52.406;9.690;2023-02-28T16:41:47;5.27;;;2.73;;
64633;SDS011;51043;52.406;9.690;2023-02-28T16:44:27;3.87;;;2.90;;
64633;SDS011;51043;52.406;9.690;2023-02-28T16:46:55;8.33;;;3.40;;
64633;SDS011;51043;52.406;9.690;2023-02-28T16:49:22;6.90;;;2.77;;
64633;SDS011;51043;52.406;9.690;2023-02-28T16:51:49;4.97;;;2.93;;
64633;SDS011;51043;52.406;9.690;2023-02-28T16:54:16;5.97;;;3.53;;
64633;SDS011;51043;52.406;9.690;2023-02-28T16:56:44;5.60;;;3.90;;
64633;SDS011;51043;52.406;9.690;2023-02-28T16:59:12;5.40;;;3.90;;
64633;SDS011;51043;52.406;9.690;2023-02-28T17:01:41;7.93;;;4.33;;
64633;SDS011;51043;52.406;9.690;2023-02-28T17:04:08;7.73;;;4.30;;
64633;SDS011;51043;52.406;9.690;2023-02-28T17:06:37;6.57;;;4.50;;
64633;SDS011;51043;52.406;9.690;2023-02-28T17:09:04;7.17;;;4.60;;
64633;SDS011;51043;52.406;9.690;2023-02-28T17:11:31;7.60;;;4.40;;
64633;SDS011;51043;52.406;9.690;2023-02-28T17:13:59;10.63;;;5.83;;
64633;SDS011;51043;52.406;9.690;2023-02-28T17:16:28;8.67;;;5.13;;
64633;SDS011;51043;52.406;9.690;2023-02-28T17:18:57;13.63;;;5.97;;
64633;SDS011;51043;52.406;9.690;2023-02-28T17:21:29;14.20;;;6.23;;
64633;SDS011;51043;52.406;9.690;2023-02-28T17:23:57;10.13;;;6.20;;
64633;SDS011;51043;52.406;9.690;2023-02-28T17:26:24;8.97;;;6.20;;
64633;SDS011;51043;52.406;9.690;2023-02-28T17:28:52;9.27;;;6.03;;
64633;SDS011;51043;52.406;9.690;2023-02-28T17:31:25;8.07;;;5.50;;
64633;SDS011;51043;52.406;9.690;2023-02-28T17:33:53;10.20;;;5.33;;
64633;SDS011;51043;52.406;9.690;2023-02-28T17:36:24;9.10;;;5.37;;
64633;SDS011;51043;52.406;9.690;2023-02-28T17:38:53;9.23;;;5.50;;
64633;SDS011;51043;52.406;9.690;2023-02-28T17:41:21;12.17;;;5.03;;
64633;SDS011;51043;52.406;9.690;2023-02-28T17:43:48;10.43;;;5.23;;
64633;SDS011;51043;52.406;9.690;2023-02-28T17:46:17;9.37;;;5.60;;